MET'MAP v2.0
soon released !

Expected late october,
this new version will be
more efficient, smarter,
and hosted on a brand new
server x3 powerfull...
...and still free !


Not compatible ?
Try the mobile version !

LOG IN : | Subscribe | Disclaimer | Who is Orbifly ? |
ICAO code :
Legend : VFR Marginal VFR IFR Intensive IFR Very Intensive IFR
Visi :
Ceiling :
>= 8 km
>= 3000ft
5 to 8 km
1000 to 3000 ft
1500m to 5 km
500 to 1000 ft
800 to 1500m
200 to 500 ft
< 800m
< 200 ft

METAR - GMFM Bassatine Airport - 27 May 2020 05:43 UTC - Data Source NOAA   


- Airport Elevation : 1890 ft
- IATA code : MEK
- No reported NOTAMs.


GMFM - Bassatine Airport

Latest METAR recorded : 2015/08/11 08:00 GMFM 110800Z 10006KT 8000 NSC 27/17 Q1017 NOSIG
TAF TAF GMFM
Valid from the 27 at 00:00 until the 28 at 06:00 UTC


262300Z 2700/2806 07006KT CAVOK
TEMPO 2712/2720 32010KT FEW023 SCT200

Source NOAA


MET'MAP, your aeronautical weather chart ! - Copyright ORBIFLY December 2007

Programming & Development : Alexandra Zaïnal
Co-Developer : Marc-Olivier Méhu
Technical & hardware support : Manuel Goepfert
Concept & Financing : Baudouin d'Aumeries